Time;durP1;ratioP1;P1;durP2;ratioP2;P2;SDS_P1;SDS_P2;PMS_P1;PMS_P2;Temp;Humidity;BMP_temperature;BMP_pressure;BME280_temperature;BME280_humidity;BME280_pressure;Samples;Min_cycle;Max_cycle;Signal;HPM_P1;HPM_P2
2023/12/27 00:01:17;;;;;;;;;;;3.10;99.90;;;;;;4942066;28;19926;-56
2023/12/27 00:03:43;;;;;;;;;;;3.20;99.90;;;;;;4934795;28;19973;-56
2023/12/27 00:06:09;;;;;;;;;;;3.20;99.90;;;;;;4923581;28;20466;-57
2023/12/27 00:08:35;;;;;;;;;;;3.10;99.90;;;;;;4927773;28;19980;-56
2023/12/27 00:11:03;;;;;;;;;;;3.10;99.90;;;;;;4944315;28;20618;-56
2023/12/27 00:13:29;;;;;;;;;;;3.10;99.90;;;;;;4941033;28;19929;-57
2023/12/27 00:15:55;;;;;;;;;;;3.10;99.90;;;;;;4942859;28;19981;-57
2023/12/27 00:18:20;;;;;;;;;;;3.00;99.90;;;;;;4945596;28;21194;-57
2023/12/27 00:20:47;;;;;;;;;;;3.00;99.90;;;;;;4947671;28;19925;-57
2023/12/27 00:23:13;;;;;;;;;;;3.00;99.90;;;;;;4947789;28;19925;-56
2023/12/27 00:25:39;;;;;;;;;;;3.00;99.90;;;;;;4945159;28;22922;-54
2023/12/27 00:28:05;;;;;;;;;;;3.00;99.90;;;;;;4942651;28;19926;-57
2023/12/27 00:30:31;;;;;;;;;;;3.00;99.90;;;;;;4945217;28;19926;-56
2023/12/27 00:32:57;;;;;;;;;;;2.90;99.90;;;;;;4943228;28;19993;-56
2023/12/27 00:35:22;;;;;;;;;;;2.90;99.90;;;;;;4914532;28;20012;-57
2023/12/27 00:37:48;;;;;;;;;;;2.90;99.90;;;;;;4935780;28;20016;-58
2023/12/27 00:40:13;;;;;;;;;;;2.90;99.90;;;;;;4942559;28;19918;-57
2023/12/27 00:42:39;;;;;;;;;;;2.90;99.90;;;;;;4923291;28;19932;-56
2023/12/27 00:45:05;;;;;;;;;;;2.80;99.90;;;;;;4940356;28;20402;-55
2023/12/27 00:47:30;;;;;;;;;;;2.80;99.90;;;;;;4934975;28;19957;-57
2023/12/27 00:49:57;;;;;;;;;;;2.80;99.90;;;;;;4944328;28;20021;-57
2023/12/27 00:52:22;;;;;;;;;;;2.80;99.90;;;;;;4938097;28;20317;-57
2023/12/27 00:54:48;;;;;;;;;;;2.80;99.90;;;;;;4939148;28;19970;-57
2023/12/27 00:57:13;;;;;;;;;;;2.70;99.90;;;;;;4933616;28;19945;-56
2023/12/27 00:59:39;;;;;;;;;;;2.80;99.90;;;;;;4914731;28;19969;-57
2023/12/27 01:02:06;;;;;;;;;;;2.80;99.90;;;;;;4938426;28;20385;-55
2023/12/27 01:04:32;;;;;;;;;;;2.80;99.90;;;;;;4938838;28;20336;-57
2023/12/27 01:06:58;;;;;;;;;;;2.80;99.90;;;;;;4935216;28;20333;-57
2023/12/27 01:09:24;;;;;;;;;;;2.80;99.90;;;;;;4932604;28;19921;-57
2023/12/27 01:11:49;;;;;;;;;;;2.80;99.90;;;;;;4939028;28;20064;-56
2023/12/27 01:14:16;;;;;;;;;;;2.80;99.90;;;;;;4938300;28;19926;-56
2023/12/27 01:16:42;;;;;;;;;;;2.80;99.90;;;;;;4920825;28;19922;-56
2023/12/27 01:19:09;;;;;;;;;;;2.80;99.90;;;;;;4938838;28;19922;-56
2023/12/27 01:21:35;;;;;;;;;;;2.70;99.90;;;;;;4939187;28;21756;-57
2023/12/27 01:24:00;;;;;;;;;;;2.80;99.90;;;;;;4936608;28;19928;-56
2023/12/27 01:26:26;;;;;;;;;;;2.70;99.90;;;;;;4939445;28;19932;-56
2023/12/27 01:28:51;;;;;;;;;;;2.80;99.90;;;;;;4933734;28;20024;-56
2023/12/27 01:31:17;;;;;;;;;;;2.80;99.90;;;;;;4939539;28;19930;-57
2023/12/27 01:33:42;;;;;;;;;;;2.80;99.90;;;;;;4944008;28;21885;-56
2023/12/27 01:36:08;;;;;;;;;;;2.80;99.90;;;;;;4938806;28;20728;-56
2023/12/27 01:38:34;;;;;;;;;;;2.80;99.90;;;;;;4942733;28;20401;-57
2023/12/27 01:41:00;;;;;;;;;;;2.80;99.90;;;;;;4944520;28;20342;-57
2023/12/27 01:43:25;;;;;;;;;;;2.70;99.90;;;;;;4923014;28;19974;-54
2023/12/27 01:45:51;;;;;;;;;;;2.70;99.90;;;;;;4936729;28;19926;-57
2023/12/27 01:48:20;;;;;;;;;;;2.80;99.90;;;;;;4935002;28;20371;-56
2023/12/27 01:50:49;;;;;;;;;;;2.80;99.90;;;;;;4937779;28;20987;-58
2023/12/27 01:53:18;;;;;;;;;;;2.70;99.90;;;;;;4924359;28;19938;-56
2023/12/27 01:55:44;;;;;;;;;;;2.70;99.90;;;;;;4941353;28;20385;-57
2023/12/27 01:58:11;;;;;;;;;;;2.70;99.90;;;;;;4936358;28;19926;-57
2023/12/27 02:00:39;;;;;;;;;;;2.70;99.90;;;;;;4933501;28;20008;-56
2023/12/27 02:03:05;;;;;;;;;;;2.70;99.90;;;;;;4932505;28;21822;-56
2023/12/27 02:05:32;;;;;;;;;;;2.80;99.90;;;;;;4942610;28;20033;-57
2023/12/27 02:07:59;;;;;;;;;;;2.70;99.90;;;;;;4937462;28;20420;-56
2023/12/27 02:10:25;;;;;;;;;;;2.70;99.90;;;;;;4926978;28;20427;-55
2023/12/27 02:12:50;;;;;;;;;;;2.60;99.90;;;;;;4937738;28;19976;-57
2023/12/27 02:15:16;;;;;;;;;;;2.70;99.90;;;;;;4938704;28;19928;-57
2023/12/27 02:17:42;;;;;;;;;;;2.70;99.90;;;;;;4936403;28;19995;-57
2023/12/27 02:20:09;;;;;;;;;;;2.60;99.90;;;;;;4942755;28;19926;-55
2023/12/27 02:22:34;;;;;;;;;;;2.60;99.90;;;;;;4938488;28;20083;-56
2023/12/27 02:25:00;;;;;;;;;;;2.60;99.90;;;;;;4934088;28;19926;-55
2023/12/27 02:27:26;;;;;;;;;;;2.60;99.90;;;;;;4934467;28;19993;-57
2023/12/27 02:29:51;;;;;;;;;;;2.60;99.90;;;;;;4938639;28;19954;-57
2023/12/27 02:32:17;;;;;;;;;;;2.50;99.90;;;;;;4936773;28;19933;-57
2023/12/27 02:34:42;;;;;;;;;;;2.50;99.90;;;;;;4935254;28;19930;-57
2023/12/27 02:37:08;;;;;;;;;;;2.60;99.90;;;;;;4933773;28;20324;-56
2023/12/27 02:39:34;;;;;;;;;;;2.50;99.90;;;;;;4939176;28;19941;-57
2023/12/27 02:41:59;;;;;;;;;;;2.50;99.90;;;;;;4941634;28;20363;-57
2023/12/27 02:44:27;;;;;;;;;;;2.40;99.90;;;;;;4936850;28;19933;-57
2023/12/27 02:46:53;;;;;;;;;;;2.40;99.90;;;;;;4936129;28;20009;-57
2023/12/27 02:49:19;;;;;;;;;;;2.40;99.90;;;;;;4936558;28;19922;-57
2023/12/27 02:51:45;;;;;;;;;;;2.40;99.90;;;;;;4932785;28;19936;-57
2023/12/27 02:54:10;;;;;;;;;;;2.50;99.90;;;;;;4935964;28;20023;-57
2023/12/27 02:56:36;;;;;;;;;;;2.40;99.90;;;;;;4937913;28;20293;-56
2023/12/27 02:59:01;;;;;;;;;;;2.40;99.90;;;;;;4941887;28;19926;-56
2023/12/27 03:01:27;;;;;;;;;;;2.40;99.90;;;;;;4938156;28;20638;-56
2023/12/27 03:03:52;;;;;;;;;;;2.40;99.90;;;;;;4940862;28;19976;-56
2023/12/27 03:06:18;;;;;;;;;;;2.30;99.90;;;;;;4924180;28;19973;-56
2023/12/27 03:08:43;;;;;;;;;;;2.30;99.90;;;;;;4941337;28;20482;-57
2023/12/27 03:11:09;;;;;;;;;;;2.30;99.90;;;;;;4935998;28;19930;-56
2023/12/27 03:13:35;;;;;;;;;;;2.30;99.90;;;;;;4926466;28;20331;-57
2023/12/27 03:16:05;;;;;;;;;;;2.30;99.90;;;;;;4945046;28;19952;-57
2023/12/27 03:18:31;;;;;;;;;;;2.30;99.90;;;;;;4940284;28;20395;-57
2023/12/27 03:20:57;;;;;;;;;;;2.40;99.90;;;;;;4916402;28;19926;-56
2023/12/27 03:23:23;;;;;;;;;;;2.40;99.90;;;;;;4922101;28;20629;-57
2023/12/27 03:25:48;;;;;;;;;;;2.40;99.90;;;;;;4932058;28;19926;-57
2023/12/27 03:28:14;;;;;;;;;;;2.40;99.90;;;;;;4937689;28;19926;-57
2023/12/27 03:30:40;;;;;;;;;;;2.40;99.90;;;;;;4936050;28;20467;-56
2023/12/27 03:33:05;;;;;;;;;;;2.40;99.90;;;;;;4939891;28;19926;-56
2023/12/27 03:35:31;;;;;;;;;;;2.40;99.90;;;;;;4943521;28;20020;-56
2023/12/27 03:37:56;;;;;;;;;;;2.40;99.90;;;;;;4942483;28;19922;-57
2023/12/27 03:40:22;;;;;;;;;;;2.40;99.90;;;;;;4939631;28;19945;-56
2023/12/27 03:42:47;;;;;;;;;;;2.40;99.90;;;;;;4940564;28;19969;-56
2023/12/27 03:45:13;;;;;;;;;;;2.40;99.90;;;;;;4942151;28;19957;-55
2023/12/27 03:47:39;;;;;;;;;;;2.30;99.90;;;;;;4943792;28;20657;-55
2023/12/27 03:50:04;;;;;;;;;;;2.30;99.90;;;;;;4923092;28;19971;-57
2023/12/27 03:52:30;;;;;;;;;;;2.30;99.90;;;;;;4937847;28;20289;-57
2023/12/27 03:54:55;;;;;;;;;;;2.30;99.90;;;;;;4943288;28;19925;-56
2023/12/27 03:57:23;;;;;;;;;;;2.30;99.90;;;;;;4940957;28;20520;-55
2023/12/27 03:59:48;;;;;;;;;;;2.30;99.90;;;;;;4926025;28;19928;-56
2023/12/27 04:02:14;;;;;;;;;;;2.30;99.90;;;;;;4923163;28;19922;-56
2023/12/27 04:04:40;;;;;;;;;;;2.30;99.90;;;;;;4936231;28;20364;-56
2023/12/27 04:07:05;;;;;;;;;;;2.30;99.90;;;;;;4939907;28;19942;-56
2023/12/27 04:09:31;;;;;;;;;;;2.30;99.90;;;;;;4936928;28;19922;-57
2023/12/27 04:11:56;;;;;;;;;;;2.30;99.90;;;;;;4926041;28;19922;-56
2023/12/27 04:14:22;;;;;;;;;;;2.30;99.90;;;;;;4939382;28;20010;-57
2023/12/27 04:16:48;;;;;;;;;;;2.30;99.90;;;;;;4920012;28;20400;-56
2023/12/27 04:19:13;;;;;;;;;;;2.30;99.90;;;;;;4940229;28;19922;-56
2023/12/27 04:21:40;;;;;;;;;;;2.30;99.90;;;;;;4923991;28;20094;-56
2023/12/27 04:24:05;;;;;;;;;;;2.30;99.90;;;;;;4926436;28;19939;-58
2023/12/27 04:26:31;;;;;;;;;;;2.30;99.90;;;;;;4938972;28;20029;-57
2023/12/27 04:28:57;;;;;;;;;;;2.30;99.90;;;;;;4934085;28;20353;-56
2023/12/27 04:31:22;;;;;;;;;;;2.30;99.90;;;;;;4945359;28;24954;-57
2023/12/27 04:33:48;;;;;;;;;;;2.30;99.90;;;;;;4940035;28;19980;-58
2023/12/27 04:36:13;;;;;;;;;;;2.30;99.90;;;;;;4922022;28;19977;-56
2023/12/27 04:38:39;;;;;;;;;;;2.40;99.90;;;;;;4924813;28;20008;-57
2023/12/27 04:41:08;;;;;;;;;;;2.30;99.90;;;;;;4921459;28;19925;-57
2023/12/27 04:43:34;;;;;;;;;;;2.30;99.90;;;;;;4940536;28;20596;-56
2023/12/27 04:45:59;;;;;;;;;;;2.40;99.90;;;;;;4939047;28;20057;-57
2023/12/27 04:48:25;;;;;;;;;;;2.40;99.90;;;;;;4944328;28;19980;-57
2023/12/27 04:50:51;;;;;;;;;;;2.40;99.90;;;;;;4925795;28;19941;-57
2023/12/27 04:53:17;;;;;;;;;;;2.40;99.90;;;;;;4943065;28;20058;-57
2023/12/27 04:55:42;;;;;;;;;;;2.40;99.90;;;;;;4935470;28;20395;-56
2023/12/27 04:58:08;;;;;;;;;;;2.40;99.90;;;;;;4942055;28;19968;-57
2023/12/27 05:00:33;;;;;;;;;;;2.40;99.90;;;;;;4944406;28;19933;-57
2023/12/27 05:02:59;;;;;;;;;;;2.40;99.90;;;;;;4936218;28;20561;-57
2023/12/27 05:05:24;;;;;;;;;;;2.40;99.90;;;;;;4941366;28;19930;-56
2023/12/27 05:07:50;;;;;;;;;;;2.40;99.90;;;;;;4941786;28;19965;-57
2023/12/27 05:10:16;;;;;;;;;;;2.40;99.90;;;;;;4943126;28;19930;-57
2023/12/27 05:12:41;;;;;;;;;;;2.40;99.90;;;;;;4939805;28;19930;-56
2023/12/27 05:15:07;;;;;;;;;;;2.40;99.90;;;;;;4942399;28;19943;-54
2023/12/27 05:17:32;;;;;;;;;;;2.40;99.90;;;;;;4941516;28;20296;-57
2023/12/27 05:19:58;;;;;;;;;;;2.40;99.90;;;;;;4926715;28;19925;-56
2023/12/27 05:22:24;;;;;;;;;;;2.40;99.90;;;;;;4920337;28;19925;-57
2023/12/27 05:24:49;;;;;;;;;;;2.50;99.90;;;;;;4919029;28;19922;-56
2023/12/27 05:27:15;;;;;;;;;;;2.50;99.90;;;;;;4941678;28;19936;-56
2023/12/27 05:29:40;;;;;;;;;;;2.50;99.90;;;;;;4927059;28;19965;-57
2023/12/27 05:32:06;;;;;;;;;;;2.50;99.90;;;;;;4938901;28;19929;-57
2023/12/27 05:34:31;;;;;;;;;;;2.50;99.90;;;;;;4933487;28;19928;-57
2023/12/27 05:36:57;;;;;;;;;;;2.50;99.90;;;;;;4938663;28;19926;-55
2023/12/27 05:39:23;;;;;;;;;;;2.50;99.90;;;;;;4940503;28;19928;-57
2023/12/27 05:41:48;;;;;;;;;;;2.50;99.90;;;;;;4939141;28;19926;-57
2023/12/27 05:44:14;;;;;;;;;;;2.50;99.90;;;;;;4941787;28;20483;-57
2023/12/27 05:46:40;;;;;;;;;;;2.50;99.90;;;;;;4941096;28;20587;-57
2023/12/27 05:49:05;;;;;;;;;;;2.50;99.90;;;;;;4938724;28;19922;-58
2023/12/27 05:51:31;;;;;;;;;;;2.50;99.90;;;;;;4936800;28;19922;-56
2023/12/27 05:53:57;;;;;;;;;;;2.60;99.90;;;;;;4923463;28;20005;-57
2023/12/27 05:56:22;;;;;;;;;;;2.60;99.90;;;;;;4943597;28;20435;-58
2023/12/27 05:58:48;;;;;;;;;;;2.70;99.90;;;;;;4939571;28;19926;-55
2023/12/27 06:01:13;;;;;;;;;;;2.70;99.90;;;;;;4942761;28;20373;-57
2023/12/27 06:03:39;;;;;;;;;;;2.70;99.90;;;;;;4944420;28;19965;-58
2023/12/27 06:06:05;;;;;;;;;;;2.70;99.90;;;;;;4940745;28;19948;-56
2023/12/27 06:08:30;;;;;;;;;;;2.70;99.90;;;;;;4943626;28;20293;-57
2023/12/27 06:10:56;;;;;;;;;;;2.70;99.90;;;;;;4945010;28;19926;-57
2023/12/27 06:13:21;;;;;;;;;;;2.80;99.90;;;;;;4941435;28;19969;-58
2023/12/27 06:15:47;;;;;;;;;;;2.80;99.90;;;;;;4941752;28;19925;-55
2023/12/27 06:18:12;;;;;;;;;;;2.80;99.90;;;;;;4939810;28;20009;-57
2023/12/27 06:20:38;;;;;;;;;;;2.90;99.90;;;;;;4939309;28;20277;-56
2023/12/27 06:23:04;;;;;;;;;;;2.90;99.90;;;;;;4940016;28;19926;-55
2023/12/27 06:25:29;;;;;;;;;;;2.90;99.90;;;;;;4939196;28;20017;-57
2023/12/27 06:27:55;;;;;;;;;;;2.90;99.90;;;;;;4941571;28;20447;-56
2023/12/27 06:30:20;;;;;;;;;;;3.00;99.90;;;;;;4939761;28;19961;-55
2023/12/27 06:32:46;;;;;;;;;;;3.00;99.90;;;;;;4924131;28;19967;-57
2023/12/27 06:35:11;;;;;;;;;;;3.00;99.90;;;;;;4917057;28;19947;-57
2023/12/27 06:37:37;;;;;;;;;;;3.10;99.90;;;;;;4936456;28;20372;-56
2023/12/27 06:40:03;;;;;;;;;;;3.10;99.90;;;;;;4936216;28;19931;-57
2023/12/27 06:42:28;;;;;;;;;;;3.10;99.90;;;;;;4939892;28;20001;-56
2023/12/27 06:44:54;;;;;;;;;;;3.10;99.90;;;;;;4939024;28;19926;-57
2023/12/27 06:47:20;;;;;;;;;;;3.10;99.90;;;;;;4941634;28;19926;-56
2023/12/27 06:49:47;;;;;;;;;;;3.20;99.90;;;;;;4938956;28;19927;-56
2023/12/27 06:52:13;;;;;;;;;;;3.20;99.90;;;;;;4937985;28;19926;-57
2023/12/27 06:54:38;;;;;;;;;;;3.20;99.90;;;;;;4944013;28;19929;-55
2023/12/27 06:57:04;;;;;;;;;;;3.30;99.90;;;;;;4943778;28;22231;-57
2023/12/27 06:59:29;;;;;;;;;;;3.30;99.90;;;;;;4938860;28;20432;-57
2023/12/27 07:01:55;;;;;;;;;;;3.30;99.90;;;;;;4940238;28;19994;-57
2023/12/27 07:04:21;;;;;;;;;;;3.30;99.90;;;;;;4942575;28;19937;-57
2023/12/27 07:06:46;;;;;;;;;;;3.30;99.90;;;;;;4947854;28;20048;-57
2023/12/27 07:09:12;;;;;;;;;;;3.40;99.90;;;;;;4943054;28;19926;-57
2023/12/27 07:11:38;;;;;;;;;;;3.40;99.90;;;;;;4944521;28;19926;-58
2023/12/27 07:14:04;;;;;;;;;;;3.40;99.90;;;;;;4949187;28;20341;-57
2023/12/27 07:16:29;;;;;;;;;;;3.50;99.90;;;;;;4946657;28;19922;-57
2023/12/27 07:18:55;;;;;;;;;;;3.40;99.90;;;;;;4949779;28;20436;-57
2023/12/27 07:21:20;;;;;;;;;;;3.50;99.90;;;;;;4950051;28;19922;-57
2023/12/27 07:23:46;;;;;;;;;;;3.50;99.90;;;;;;4947714;28;19961;-56
2023/12/27 07:26:12;;;;;;;;;;;3.60;99.90;;;;;;4948542;28;19922;-57
2023/12/27 07:28:38;;;;;;;;;;;3.60;99.90;;;;;;4937413;28;19917;-58
2023/12/27 07:31:04;;;;;;;;;;;3.60;99.90;;;;;;4951787;28;20012;-57
2023/12/27 07:33:29;;;;;;;;;;;3.60;99.90;;;;;;4928996;28;20624;-54
2023/12/27 07:35:55;;;;;;;;;;;3.60;99.90;;;;;;4933291;28;19926;-57
2023/12/27 07:38:20;;;;;;;;;;;3.70;99.90;;;;;;4952498;28;19921;-57
2023/12/27 07:40:46;;;;;;;;;;;3.70;99.90;;;;;;4948458;28;19950;-56
2023/12/27 07:43:12;;;;;;;;;;;3.70;99.90;;;;;;4948894;28;20634;-57
2023/12/27 07:45:37;;;;;;;;;;;3.70;99.90;;;;;;4948636;28;19922;-57
2023/12/27 07:48:03;;;;;;;;;;;3.70;99.90;;;;;;4896780;28;19922;-55
2023/12/27 07:50:29;;;;;;;;;;;3.70;99.90;;;;;;4934549;28;19997;-58
2023/12/27 07:52:54;;;;;;;;;;;3.70;99.90;;;;;;4937715;28;20879;-58
2023/12/27 07:55:20;;;;;;;;;;;3.80;99.90;;;;;;4941109;28;19996;-56
2023/12/27 07:57:46;;;;;;;;;;;3.80;99.90;;;;;;4945179;28;20704;-55
2023/12/27 08:00:15;;;;;;;;;;;3.80;99.90;;;;;;4943836;28;20016;-57
2023/12/27 08:02:41;;;;;;;;;;;3.80;99.90;;;;;;4941951;28;19922;-56
2023/12/27 08:05:07;;;;;;;;;;;3.80;99.90;;;;;;4929199;28;19922;-56
2023/12/27 08:07:32;;;;;;;;;;;3.80;99.90;;;;;;4925049;28;20029;-57
2023/12/27 08:09:58;;;;;;;;;;;3.80;99.90;;;;;;4931178;28;20334;-56
2023/12/27 08:12:23;;;;;;;;;;;3.80;99.90;;;;;;4927080;28;19943;-55
2023/12/27 08:14:49;;;;;;;;;;;3.80;99.90;;;;;;4886615;28;19927;-56
2023/12/27 08:17:15;;;;;;;;;;;3.80;99.90;;;;;;4914923;28;24939;-55
2023/12/27 08:19:41;;;;;;;;;;;3.80;99.90;;;;;;4929341;28;20067;-56
2023/12/27 08:22:07;;;;;;;;;;;3.80;99.90;;;;;;4919484;28;20143;-57
2023/12/27 08:24:32;;;;;;;;;;;3.90;99.90;;;;;;4921491;28;19922;-54
2023/12/27 08:26:58;;;;;;;;;;;3.80;99.90;;;;;;4903899;28;21828;-55
2023/12/27 08:29:24;;;;;;;;;;;3.90;99.90;;;;;;4925471;28;19933;-56
2023/12/27 08:31:50;;;;;;;;;;;3.80;99.90;;;;;;4911174;28;20464;-56
2023/12/27 08:34:16;;;;;;;;;;;3.90;99.90;;;;;;4926608;28;20349;-55
2023/12/27 08:36:45;;;;;;;;;;;3.90;99.90;;;;;;4920121;28;19926;-57
2023/12/27 08:39:13;;;;;;;;;;;3.90;99.90;;;;;;4927753;28;20274;-57
2023/12/27 08:41:39;;;;;;;;;;;3.90;99.90;;;;;;4925530;28;20570;-55
2023/12/27 08:44:04;;;;;;;;;;;3.90;99.90;;;;;;4913868;28;19978;-56
2023/12/27 08:46:33;;;;;;;;;;;3.80;99.90;;;;;;4924771;28;19973;-56
2023/12/27 08:48:59;;;;;;;;;;;3.90;99.90;;;;;;4926264;28;19922;-56
2023/12/27 08:51:24;;;;;;;;;;;3.90;99.90;;;;;;4912740;28;19930;-57
2023/12/27 08:53:50;;;;;;;;;;;4.00;99.90;;;;;;4921812;29;19974;-56
2023/12/27 08:56:15;;;;;;;;;;;3.90;99.90;;;;;;4920999;28;19993;-55
2023/12/27 08:58:41;;;;;;;;;;;4.00;99.90;;;;;;4911691;28;19926;-57
2023/12/27 09:01:07;;;;;;;;;;;4.00;99.90;;;;;;4929922;28;20373;-55
2023/12/27 09:03:33;;;;;;;;;;;4.00;99.90;;;;;;4925679;28;19926;-57
2023/12/27 09:05:58;;;;;;;;;;;4.10;99.90;;;;;;4916301;28;19926;-58
2023/12/27 09:08:24;;;;;;;;;;;4.00;99.90;;;;;;4926272;28;19937;-57
2023/12/27 09:10:50;;;;;;;;;;;4.00;99.90;;;;;;4924012;28;20342;-57
2023/12/27 09:13:16;;;;;;;;;;;4.10;99.90;;;;;;4935707;28;19929;-57
2023/12/27 09:15:41;;;;;;;;;;;4.10;99.90;;;;;;4938123;28;20851;-56
2023/12/27 09:18:08;;;;;;;;;;;4.10;99.90;;;;;;4923059;28;19922;-56
2023/12/27 09:20:34;;;;;;;;;;;4.10;99.90;;;;;;4929782;28;20028;-56
2023/12/27 09:23:00;;;;;;;;;;;4.20;99.90;;;;;;4923872;28;20452;-57
2023/12/27 09:25:26;;;;;;;;;;;4.20;99.90;;;;;;4921595;28;19922;-55
2023/12/27 09:27:51;;;;;;;;;;;4.20;99.90;;;;;;4902992;28;20385;-56
2023/12/27 09:30:17;;;;;;;;;;;4.20;99.90;;;;;;4923521;28;19922;-55
2023/12/27 09:32:43;;;;;;;;;;;4.20;99.90;;;;;;4907240;28;19930;-57
2023/12/27 09:35:08;;;;;;;;;;;4.30;99.90;;;;;;4920073;28;19926;-57
2023/12/27 09:37:35;;;;;;;;;;;4.30;99.90;;;;;;4917756;28;19930;-57
2023/12/27 09:40:01;;;;;;;;;;;4.30;99.90;;;;;;4884479;28;19922;-57
2023/12/27 09:42:27;;;;;;;;;;;4.40;99.90;;;;;;4905514;28;20494;-55
2023/12/27 09:44:54;;;;;;;;;;;4.30;99.90;;;;;;4911035;28;19965;-57
2023/12/27 09:47:21;;;;;;;;;;;4.30;99.90;;;;;;4909607;28;20338;-56
2023/12/27 09:49:46;;;;;;;;;;;4.30;99.90;;;;;;4906235;28;20020;-57
2023/12/27 09:52:13;;;;;;;;;;;4.30;99.90;;;;;;4890708;28;19930;-58
2023/12/27 09:54:38;;;;;;;;;;;4.40;99.90;;;;;;4906029;28;19965;-56
2023/12/27 09:57:04;;;;;;;;;;;4.40;99.90;;;;;;4902758;28;19966;-57
2023/12/27 09:59:36;;;;;;;;;;;4.40;99.90;;;;;;4909297;28;19969;-56
2023/12/27 10:02:02;;;;;;;;;;;4.50;99.90;;;;;;4907836;28;20013;-57
2023/12/27 10:04:35;;;;;;;;;;;4.40;99.90;;;;;;4923327;28;19990;-55
2023/12/27 10:07:02;;;;;;;;;;;4.50;99.90;;;;;;4935328;28;19973;-56
2023/12/27 10:09:28;;;;;;;;;;;4.50;99.90;;;;;;4926740;28;19929;-57
2023/12/27 10:11:54;;;;;;;;;;;4.50;99.90;;;;;;4941122;28;19925;-58
2023/12/27 10:14:20;;;;;;;;;;;4.50;99.90;;;;;;4937689;28;20760;-56
2023/12/27 10:16:46;;;;;;;;;;;4.60;99.90;;;;;;4936649;28;19922;-57
2023/12/27 10:19:30;;;;;;;;;;;4.60;99.90;;;;;;4924408;28;19992;-56
2023/12/27 10:21:56;;;;;;;;;;;4.60;99.90;;;;;;4942598;28;20390;-57
2023/12/27 10:24:21;;;;;;;;;;;4.70;99.90;;;;;;4939389;28;19923;-57
2023/12/27 10:26:47;;;;;;;;;;;4.70;99.90;;;;;;4939922;28;20380;-54
2023/12/27 10:29:15;;;;;;;;;;;4.70;99.90;;;;;;4937601;28;19937;-57
2023/12/27 10:31:40;;;;;;;;;;;4.80;99.90;;;;;;4904485;28;20400;-57
2023/12/27 10:34:08;;;;;;;;;;;4.80;99.90;;;;;;4934829;28;19926;-56
2023/12/27 10:36:38;;;;;;;;;;;4.80;99.90;;;;;;4937799;28;19961;-57
2023/12/27 10:39:05;;;;;;;;;;;4.80;99.90;;;;;;4931800;28;20495;-57
2023/12/27 10:41:32;;;;;;;;;;;4.90;99.90;;;;;;4944076;28;19969;-57
2023/12/27 10:44:00;;;;;;;;;;;4.90;99.90;;;;;;4925199;28;20272;-55
2023/12/27 10:46:26;;;;;;;;;;;4.90;99.90;;;;;;4941240;28;21121;-57
2023/12/27 10:48:54;;;;;;;;;;;4.90;99.90;;;;;;4929190;28;20127;-56
2023/12/27 10:51:21;;;;;;;;;;;5.00;99.90;;;;;;4937420;28;20009;-56
2023/12/27 10:53:49;;;;;;;;;;;5.00;99.90;;;;;;4946319;28;19926;-55
2023/12/27 10:56:18;;;;;;;;;;;5.00;99.90;;;;;;4949735;28;20372;-57
2023/12/27 10:58:45;;;;;;;;;;;5.00;99.90;;;;;;4945286;28;20612;-58
2023/12/27 11:01:12;;;;;;;;;;;5.00;99.90;;;;;;4946230;28;20365;-55
2023/12/27 11:03:38;;;;;;;;;;;5.10;99.90;;;;;;4947547;28;19922;-56
2023/12/27 11:06:04;;;;;;;;;;;5.10;99.90;;;;;;4944662;28;20353;-56
2023/12/27 11:08:31;;;;;;;;;;;5.10;99.90;;;;;;4944183;28;19932;-57
2023/12/27 11:10:59;;;;;;;;;;;5.20;99.90;;;;;;4925609;28;19926;-56
2023/12/27 11:13:26;;;;;;;;;;;5.20;99.90;;;;;;4934069;28;19987;-57
2023/12/27 11:15:53;;;;;;;;;;;5.20;99.90;;;;;;4944398;28;19922;-57
2023/12/27 11:18:21;;;;;;;;;;;5.20;99.90;;;;;;4942173;28;19940;-58
2023/12/27 11:20:49;;;;;;;;;;;5.20;99.90;;;;;;4943708;28;19966;-57
2023/12/27 11:23:15;;;;;;;;;;;5.30;99.90;;;;;;4938436;28;19926;-57
2023/12/27 11:25:41;;;;;;;;;;;5.30;99.90;;;;;;4922694;28;19942;-57
2023/12/27 11:28:07;;;;;;;;;;;5.30;99.90;;;;;;4941923;28;19922;-57
2023/12/27 11:30:33;;;;;;;;;;;5.30;99.90;;;;;;4942926;28;19965;-57
2023/12/27 11:32:59;;;;;;;;;;;5.30;99.90;;;;;;4941248;28;19930;-56
2023/12/27 11:35:27;;;;;;;;;;;5.30;99.90;;;;;;4943076;28;19949;-57
2023/12/27 11:38:03;;;;;;;;;;;5.30;99.90;;;;;;4941052;28;19922;-56
2023/12/27 11:40:35;;;;;;;;;;;5.30;99.90;;;;;;4937208;28;20395;-57
2023/12/27 11:43:03;;;;;;;;;;;5.30;99.90;;;;;;4946034;28;21167;-56
2023/12/27 11:45:48;;;;;;;;;;;5.30;99.90;;;;;;4940894;28;19929;-57
2023/12/27 11:48:14;;;;;;;;;;;5.30;99.90;;;;;;4926515;28;20487;-58
2023/12/27 11:50:39;;;;;;;;;;;5.30;99.90;;;;;;4940994;28;19925;-55
2023/12/27 11:53:05;;;;;;;;;;;5.30;99.90;;;;;;4937366;28;20384;-58
2023/12/27 11:55:31;;;;;;;;;;;5.30;99.90;;;;;;4942144;28;20048;-57
2023/12/27 11:57:57;;;;;;;;;;;5.30;99.90;;;;;;4944124;28;20041;-56
2023/12/27 12:00:24;;;;;;;;;;;5.30;99.90;;;;;;4938565;28;20217;-57
2023/12/27 12:02:57;;;;;;;;;;;5.30;99.90;;;;;;4925803;28;19922;-58
2023/12/27 12:05:29;;;;;;;;;;;5.30;99.90;;;;;;4942264;28;20016;-57
2023/12/27 12:08:01;;;;;;;;;;;5.30;99.90;;;;;;4939484;28;19926;-56
2023/12/27 12:10:27;;;;;;;;;;;5.30;99.90;;;;;;4943518;28;21080;-58
2023/12/27 12:12:55;;;;;;;;;;;5.30;99.90;;;;;;4930565;28;19930;-56
2023/12/27 12:15:22;;;;;;;;;;;5.30;99.90;;;;;;4937148;28;19926;-56
2023/12/27 12:17:48;;;;;;;;;;;5.30;99.90;;;;;;4930296;28;19970;-57
2023/12/27 12:20:13;;;;;;;;;;;5.30;99.90;;;;;;4940190;28;20491;-57
2023/12/27 12:22:39;;;;;;;;;;;5.30;99.90;;;;;;4936212;28;20219;-56
2023/12/27 12:25:07;;;;;;;;;;;5.30;99.90;;;;;;4920898;28;19926;-57
2023/12/27 12:27:33;;;;;;;;;;;5.20;99.90;;;;;;4921388;28;20013;-57
2023/12/27 12:29:58;;;;;;;;;;;5.10;99.90;;;;;;4935108;28;19926;-57
2023/12/27 12:32:25;;;;;;;;;;;5.20;99.90;;;;;;4938168;28;22917;-56
2023/12/27 12:34:51;;;;;;;;;;;5.20;99.90;;;;;;4937448;28;20017;-58
2023/12/27 12:37:17;;;;;;;;;;;5.20;99.90;;;;;;4949229;28;20461;-57
2023/12/27 12:39:46;;;;;;;;;;;5.20;99.90;;;;;;4951610;28;19976;-58
2023/12/27 12:42:11;;;;;;;;;;;5.20;99.90;;;;;;4949899;28;19926;-58
2023/12/27 12:44:37;;;;;;;;;;;5.30;99.90;;;;;;4943126;28;19978;-57
2023/12/27 12:47:04;;;;;;;;;;;5.20;99.90;;;;;;4948989;28;20238;-58
2023/12/27 12:49:29;;;;;;;;;;;5.20;99.90;;;;;;4948786;28;19938;-58
2023/12/27 12:52:05;;;;;;;;;;;5.20;99.90;;;;;;4913739;28;20365;-57
2023/12/27 12:54:34;;;;;;;;;;;5.20;99.90;;;;;;4943552;28;19922;-58
2023/12/27 12:57:00;;;;;;;;;;;5.20;99.90;;;;;;4949103;28;20044;-57
2023/12/27 12:59:27;;;;;;;;;;;5.30;99.90;;;;;;4926353;28;19926;-58
2023/12/27 13:01:53;;;;;;;;;;;5.20;99.90;;;;;;4950901;28;20009;-57
2023/12/27 13:04:22;;;;;;;;;;;5.30;99.90;;;;;;4952686;28;19922;-58
2023/12/27 13:06:48;;;;;;;;;;;5.30;99.90;;;;;;4948862;28;19918;-55
2023/12/27 13:09:14;;;;;;;;;;;5.30;99.90;;;;;;4926179;28;19926;-57
2023/12/27 13:11:40;;;;;;;;;;;5.30;99.90;;;;;;4924878;28;19926;-57
2023/12/27 13:14:05;;;;;;;;;;;5.30;99.90;;;;;;4944264;28;25059;-57
2023/12/27 13:16:31;;;;;;;;;;;5.40;99.90;;;;;;4930536;28;20018;-53
2023/12/27 13:18:59;;;;;;;;;;;5.40;99.90;;;;;;4940357;28;19926;-58
2023/12/27 13:21:27;;;;;;;;;;;5.40;99.90;;;;;;4927841;28;19969;-58
2023/12/27 13:23:53;;;;;;;;;;;5.30;99.90;;;;;;4946544;28;19919;-58
2023/12/27 13:26:20;;;;;;;;;;;5.50;99.90;;;;;;4934509;28;19929;-56
2023/12/27 13:28:46;;;;;;;;;;;5.50;99.90;;;;;;4930902;28;19981;-56
2023/12/27 13:31:11;;;;;;;;;;;5.40;99.90;;;;;;4928709;28;19926;-58
2023/12/27 13:33:37;;;;;;;;;;;5.50;99.90;;;;;;4924426;28;19929;-57
2023/12/27 13:36:03;;;;;;;;;;;5.50;99.90;;;;;;4939766;28;19926;-58
2023/12/27 13:38:29;;;;;;;;;;;5.60;99.90;;;;;;4932148;28;19922;-58
2023/12/27 13:40:55;;;;;;;;;;;5.60;99.90;;;;;;4936878;28;20010;-57
2023/12/27 13:43:20;;;;;;;;;;;5.60;99.90;;;;;;4938565;28;19926;-58
2023/12/27 13:45:46;;;;;;;;;;;5.70;99.90;;;;;;4920851;28;19923;-57
2023/12/27 13:48:12;;;;;;;;;;;5.70;99.90;;;;;;4943557;28;20392;-57
2023/12/27 13:50:37;;;;;;;;;;;5.70;99.90;;;;;;4943423;28;19926;-57
2023/12/27 13:53:03;;;;;;;;;;;5.70;99.90;;;;;;4925908;28;19925;-58
2023/12/27 13:55:29;;;;;;;;;;;5.70;99.90;;;;;;4949386;28;19922;-57
2023/12/27 13:57:55;;;;;;;;;;;5.70;99.90;;;;;;4945080;28;19926;-56
2023/12/27 14:00:20;;;;;;;;;;;5.80;99.90;;;;;;4946931;28;19932;-57
2023/12/27 14:02:49;;;;;;;;;;;5.80;99.90;;;;;;4939300;28;19993;-57
2023/12/27 14:05:15;;;;;;;;;;;5.80;99.90;;;;;;4932518;28;20061;-56
2023/12/27 14:07:41;;;;;;;;;;;5.90;99.90;;;;;;4905716;28;19933;-56
2023/12/27 14:10:07;;;;;;;;;;;5.90;99.90;;;;;;4923551;28;19922;-56
2023/12/27 14:12:32;;;;;;;;;;;5.90;99.90;;;;;;4922744;28;19927;-56
2023/12/27 14:15:00;;;;;;;;;;;5.90;99.90;;;;;;4927193;28;19930;-56
2023/12/27 14:17:28;;;;;;;;;;;6.00;99.90;;;;;;4923568;28;20298;-57
2023/12/27 14:19:54;;;;;;;;;;;6.00;99.90;;;;;;4929646;28;19922;-57
2023/12/27 14:22:19;;;;;;;;;;;6.00;99.90;;;;;;4929254;28;19942;-58
2023/12/27 14:24:45;;;;;;;;;;;6.00;99.90;;;;;;4919564;29;19925;-56